createdAt,value
2016-08-25T00:00:14.000Z,24.86
2016-08-25T00:01:13.993Z,24.8
2016-08-25T00:02:14.029Z,24.77
2016-08-25T00:03:14.017Z,24.8
2016-08-25T00:04:14.038Z,24.8
2016-08-25T00:05:14.050Z,24.82
2016-08-25T00:06:14.031Z,24.78
2016-08-25T00:07:14.077Z,24.77
2016-08-25T00:08:14.079Z,24.83
2016-08-25T00:09:14.081Z,24.87
2016-08-25T00:10:14.090Z,24.86
2016-08-25T00:11:14.103Z,24.83
2016-08-25T00:12:14.104Z,24.83
2016-08-25T00:13:14.134Z,24.9
2016-08-25T00:14:14.120Z,24.8
2016-08-25T00:15:14.165Z,24.87
2016-08-25T00:16:14.139Z,24.82
2016-08-25T00:17:14.137Z,24.86
2016-08-25T00:18:14.161Z,24.9
2016-08-25T00:19:14.197Z,24.86
2016-08-25T00:20:14.206Z,24.77
2016-08-25T00:21:14.184Z,24.85
2016-08-25T00:22:14.193Z,24.71
2016-08-25T00:23:14.213Z,24.86
2016-08-25T00:24:14.226Z,24.8
2016-08-25T00:25:14.222Z,24.75
2016-08-25T00:26:14.258Z,24.74
2016-08-25T00:27:14.247Z,24.83
2016-08-25T00:28:14.276Z,24.86
2016-08-25T00:29:14.266Z,24.82
2016-08-25T00:30:14.285Z,24.85
2016-08-25T00:31:14.312Z,24.75
2016-08-25T00:32:14.303Z,24.75
2016-08-25T00:33:14.297Z,24.86
2016-08-25T00:34:14.306Z,24.77
2016-08-25T00:35:14.347Z,24.83
2016-08-25T00:36:14.333Z,24.78
2016-08-25T00:37:14.346Z,24.74
2016-08-25T00:38:14.359Z,24.83
2016-08-25T00:39:14.392Z,24.7
2016-08-25T00:40:14.400Z,24.85
2016-08-25T00:41:14.412Z,24.74
2016-08-25T00:42:14.417Z,24.77
2016-08-25T00:43:14.416Z,24.77
2016-08-25T00:44:14.427Z,24.77
2016-08-25T00:45:14.431Z,24.75
2016-08-25T00:46:14.447Z,24.71
2016-08-25T00:47:14.435Z,24.78
2016-08-25T00:48:14.466Z,24.83
2016-08-25T00:49:14.467Z,24.74
2016-08-25T00:50:14.515Z,24.75
2016-08-25T00:51:14.496Z,24.78
2016-08-25T00:52:14.497Z,24.8
2016-08-25T00:53:14.529Z,24.75
2016-08-25T00:54:14.516Z,24.74
2016-08-25T00:55:14.521Z,24.74
2016-08-25T00:56:14.520Z,24.77
2016-08-25T00:57:14.545Z,24.78
2016-08-25T00:58:14.557Z,24.77
2016-08-25T00:59:14.554Z,24.8
2016-08-25T01:00:14.582Z,24.75
2016-08-25T01:01:14.584Z,24.74
2016-08-25T01:02:14.581Z,24.74
2016-08-25T01:03:14.612Z,24.77
2016-08-25T01:04:14.630Z,24.75
2016-08-25T01:05:14.631Z,24.71
2016-08-25T01:06:14.645Z,24.77
2016-08-25T01:07:14.643Z,24.71
2016-08-25T01:08:14.658Z,24.74
2016-08-25T01:09:14.681Z,24.78
2016-08-25T01:10:14.683Z,24.7
2016-08-25T01:11:14.685Z,24.69
2016-08-25T01:12:14.719Z,24.69
2016-08-25T01:13:14.704Z,24.74
2016-08-25T01:14:14.713Z,24.71
2016-08-25T01:15:14.725Z,24.74
2016-08-25T01:16:14.724Z,24.74
2016-08-25T01:17:14.742Z,24.69
2016-08-25T01:18:14.750Z,24.69
2016-08-25T01:19:14.754Z,24.69
2016-08-25T01:20:14.784Z,24.77
2016-08-25T01:21:14.784Z,24.67
2016-08-25T01:22:14.797Z,24.61
2016-08-25T01:23:14.798Z,24.67
2016-08-25T01:24:14.813Z,24.64
2016-08-25T01:25:14.830Z,24.61
2016-08-25T01:26:14.846Z,24.66
2016-08-25T01:27:14.851Z,24.69
2016-08-25T01:28:14.885Z,24.67
2016-08-25T01:29:14.882Z,24.75
2016-08-25T01:30:14.879Z,24.71
2016-08-25T01:31:14.882Z,24.66
2016-08-25T01:32:14.898Z,24.75
2016-08-25T01:33:14.898Z,24.67
2016-08-25T01:34:14.937Z,24.71
2016-08-25T01:35:14.928Z,24.67
2016-08-25T01:36:14.941Z,24.69
2016-08-25T01:37:14.942Z,24.7
2016-08-25T01:38:15.672Z,24.71
2016-08-25T01:39:14.951Z,24.71
2016-08-25T01:40:14.974Z,24.67
2016-08-25T01:41:14.988Z,24.64
2016-08-25T01:42:15.011Z,24.69
2016-08-25T01:43:15.018Z,24.7
2016-08-25T01:44:15.007Z,24.67
2016-08-25T01:45:15.039Z,24.63
2016-08-25T01:46:15.015Z,24.71
2016-08-25T01:47:15.060Z,24.7
2016-08-25T01:48:15.058Z,24.69
2016-08-25T01:49:15.050Z,24.59
2016-08-25T01:50:15.076Z,24.61
2016-08-25T01:51:15.061Z,24.71
2016-08-25T01:52:15.094Z,24.56
2016-08-25T01:53:15.084Z,24.58
2016-08-25T01:54:15.111Z,24.59
2016-08-25T01:55:15.111Z,24.52
2016-08-25T01:56:15.148Z,24.59
2016-08-25T01:57:15.153Z,24.59
2016-08-25T01:58:15.157Z,24.55
2016-08-25T01:59:15.152Z,24.63
2016-08-25T02:00:15.166Z,24.59
2016-08-25T02:01:15.197Z,24.54
2016-08-25T02:02:15.186Z,24.59
2016-08-25T02:03:15.203Z,24.58
2016-08-25T02:04:15.185Z,24.55
2016-08-25T02:05:15.220Z,24.56
2016-08-25T02:06:15.225Z,24.64
2016-08-25T02:07:15.265Z,24.63
2016-08-25T02:08:15.236Z,24.61
2016-08-25T02:09:15.261Z,24.55
2016-08-25T02:10:15.280Z,24.55
2016-08-25T02:11:15.256Z,24.52
2016-08-25T02:12:15.304Z,24.56
2016-08-25T02:13:15.318Z,24.61
2016-08-25T02:14:15.356Z,24.49
2016-08-25T02:15:15.304Z,24.59
2016-08-25T02:16:15.334Z,24.55
2016-08-25T02:17:15.339Z,24.51
2016-08-25T02:18:15.353Z,24.58
2016-08-25T02:19:15.372Z,24.51
2016-08-25T02:20:15.397Z,24.54
2016-08-25T02:21:15.369Z,24.52
2016-08-25T02:22:15.369Z,24.52
2016-08-25T02:23:15.400Z,24.63
2016-08-25T02:24:15.399Z,24.52
2016-08-25T02:25:15.431Z,24.58
2016-08-25T02:26:15.432Z,24.56
2016-08-25T02:27:15.441Z,24.54
2016-08-25T02:28:16.122Z,24.55
2016-08-25T02:29:15.433Z,24.52
2016-08-25T02:30:15.479Z,24.58
2016-08-25T02:31:15.471Z,24.52
2016-08-25T02:32:15.460Z,24.56
2016-08-25T02:33:15.502Z,24.54
2016-08-25T02:34:15.495Z,24.49
2016-08-25T02:35:15.514Z,24.51
2016-08-25T02:36:15.526Z,24.56
2016-08-25T02:37:15.542Z,24.44
2016-08-25T02:38:15.553Z,24.49
2016-08-25T02:39:15.566Z,24.48
2016-08-25T02:40:15.570Z,24.52
2016-08-25T02:41:15.576Z,24.52
2016-08-25T02:42:15.596Z,24.54
2016-08-25T02:43:15.567Z,24.44
2016-08-25T02:44:15.588Z,24.48
2016-08-25T02:45:16.327Z,24.52
2016-08-25T02:46:15.625Z,24.52
2016-08-25T02:47:15.624Z,24.48
2016-08-25T02:48:15.623Z,24.46
2016-08-25T02:49:15.642Z,24.52
2016-08-25T02:50:15.660Z,24.49
2016-08-25T02:51:15.669Z,24.45
2016-08-25T02:52:15.664Z,24.45
2016-08-25T02:53:15.679Z,24.44
2016-08-25T02:54:15.703Z,24.42
2016-08-25T02:55:15.708Z,24.44
2016-08-25T02:56:15.721Z,24.42
2016-08-25T02:57:15.750Z,24.52
2016-08-25T02:58:15.757Z,24.45
2016-08-25T02:59:15.750Z,24.44
2016-08-25T03:00:15.777Z,24.37
2016-08-25T03:01:15.782Z,24.42
2016-08-25T03:02:15.773Z,24.39
2016-08-25T03:03:15.774Z,24.4
2016-08-25T03:04:15.793Z,24.37
2016-08-25T03:05:15.811Z,24.4
2016-08-25T03:06:15.831Z,24.42
2016-08-25T03:07:15.822Z,24.42
2016-08-25T03:08:15.824Z,24.37
2016-08-25T03:09:15.838Z,24.4
2016-08-25T03:10:15.853Z,24.37
2016-08-25T03:11:15.851Z,24.33
2016-08-25T03:12:15.865Z,24.39
2016-08-25T03:13:15.891Z,24.44
2016-08-25T03:14:15.915Z,24.4
2016-08-25T03:15:15.899Z,24.36
2016-08-25T03:16:15.912Z,24.36
2016-08-25T03:17:15.917Z,24.39
2016-08-25T03:18:15.911Z,24.37
2016-08-25T03:19:15.932Z,24.36
2016-08-25T03:20:15.939Z,24.32
2016-08-25T03:21:15.968Z,24.34
2016-08-25T03:22:15.968Z,24.34
2016-08-25T03:23:15.965Z,24.37
2016-08-25T03:24:15.968Z,24.33
2016-08-25T03:25:15.983Z,24.32
2016-08-25T03:26:16.023Z,24.37
2016-08-25T03:27:16.728Z,24.32
2016-08-25T03:28:16.029Z,24.4
2016-08-25T03:29:16.012Z,24.36
2016-08-25T03:30:16.060Z,24.39
2016-08-25T03:31:16.036Z,24.37
2016-08-25T03:32:16.065Z,24.33
2016-08-25T03:33:16.067Z,24.34
2016-08-25T03:34:16.095Z,24.36
2016-08-25T03:35:16.086Z,24.34
2016-08-25T03:36:16.101Z,24.33
2016-08-25T03:37:16.124Z,24.33
2016-08-25T03:38:16.112Z,24.36
2016-08-25T03:39:16.124Z,24.33
2016-08-25T03:40:16.149Z,24.33
2016-08-25T03:41:16.148Z,24.33
2016-08-25T03:42:16.162Z,24.36
2016-08-25T03:43:16.166Z,24.34
2016-08-25T03:44:16.168Z,24.27
2016-08-25T03:45:16.167Z,24.3
2016-08-25T03:46:16.193Z,24.32
2016-08-25T03:47:16.208Z,24.29
2016-08-25T03:48:16.239Z,24.29
2016-08-25T03:49:16.240Z,24.29
2016-08-25T03:50:16.231Z,24.33
2016-08-25T03:51:16.232Z,24.27
2016-08-25T03:52:16.257Z,24.32
2016-08-25T03:53:16.245Z,24.3
2016-08-25T03:54:16.257Z,24.3
2016-08-25T03:55:16.274Z,24.32
2016-08-25T03:56:16.300Z,24.27
2016-08-25T03:57:16.300Z,24.3
2016-08-25T03:58:16.326Z,24.32
2016-08-25T03:59:16.302Z,24.36
2016-08-25T04:00:16.332Z,24.27
2016-08-25T04:01:16.340Z,24.3
2016-08-25T04:02:16.332Z,24.27
2016-08-25T04:03:16.344Z,24.29
2016-08-25T04:04:16.389Z,24.32
2016-08-25T04:05:16.375Z,24.27
2016-08-25T04:06:16.376Z,24.32
2016-08-25T04:07:16.420Z,24.3
2016-08-25T04:08:16.392Z,24.3
2016-08-25T04:09:16.409Z,24.26
2016-08-25T04:10:16.434Z,24.36
2016-08-25T04:11:16.428Z,24.3
2016-08-25T04:12:16.458Z,24.27
2016-08-25T04:13:16.456Z,24.22
2016-08-25T04:14:16.468Z,24.27
2016-08-25T04:15:16.478Z,24.29
2016-08-25T04:16:16.481Z,24.26
2016-08-25T04:17:16.490Z,24.29
2016-08-25T04:18:16.493Z,24.26
2016-08-25T04:19:16.521Z,24.32
2016-08-25T04:20:16.528Z,24.26
2016-08-25T04:21:16.535Z,24.27
2016-08-25T04:22:16.554Z,24.22
2016-08-25T04:23:16.562Z,24.24
2016-08-25T04:24:16.550Z,24.29
2016-08-25T04:25:16.592Z,24.27
2016-08-25T04:26:16.578Z,24.32
2016-08-25T04:27:16.594Z,24.3
2016-08-25T04:28:16.597Z,24.24
2016-08-25T04:29:16.462Z,24.27
2016-08-25T04:30:16.452Z,24.22
2016-08-25T04:31:16.466Z,24.27
2016-08-25T04:32:16.493Z,24.27
2016-08-25T04:33:16.493Z,24.27
2016-08-25T04:34:16.516Z,24.29
2016-08-25T04:35:16.521Z,24.33
2016-08-25T04:36:16.523Z,24.32
2016-08-25T04:37:16.520Z,24.24
2016-08-25T04:38:16.551Z,24.26
2016-08-25T04:39:16.547Z,24.27
2016-08-25T04:40:16.548Z,24.36
2016-08-25T04:41:16.561Z,24.27
2016-08-25T04:42:16.572Z,24.29
2016-08-25T04:43:16.572Z,24.21
2016-08-25T04:44:16.616Z,24.3
2016-08-25T04:45:16.711Z,24.3
2016-08-25T04:46:16.627Z,24.3
2016-08-25T04:47:16.616Z,24.27
2016-08-25T04:48:16.630Z,24.22
2016-08-25T04:49:16.633Z,24.3
2016-08-25T04:50:16.667Z,24.3
2016-08-25T04:51:16.653Z,24.32
2016-08-25T04:52:16.672Z,24.32
2016-08-25T04:53:16.685Z,24.3
2016-08-25T04:54:16.701Z,24.32
2016-08-25T04:55:16.702Z,24.32
2016-08-25T04:56:16.700Z,24.3
2016-08-25T04:57:16.735Z,24.27
2016-08-25T04:58:16.734Z,24.32
2016-08-25T04:59:16.745Z,24.29
2016-08-25T05:00:16.736Z,24.27
2016-08-25T05:01:16.754Z,24.29
2016-08-25T05:02:16.778Z,24.27
2016-08-25T05:03:16.781Z,24.29
2016-08-25T05:04:16.794Z,24.3
2016-08-25T05:05:16.795Z,24.32
2016-08-25T05:06:16.811Z,24.3
2016-08-25T05:07:16.818Z,24.32
2016-08-25T05:08:16.817Z,24.36
2016-08-25T05:09:16.830Z,24.33
2016-08-25T05:10:16.856Z,24.32
2016-08-25T05:11:16.863Z,24.32
2016-08-25T05:12:16.851Z,24.32
2016-08-25T05:13:16.892Z,24.3
2016-08-25T05:14:16.873Z,24.32
2016-08-25T05:15:16.882Z,24.34
2016-08-25T05:16:16.900Z,24.32
2016-08-25T05:17:16.924Z,24.32
2016-08-25T05:18:16.918Z,24.32
2016-08-25T05:19:16.935Z,24.29
2016-08-25T05:20:16.945Z,24.39
2016-08-25T05:21:16.949Z,24.3
2016-08-25T05:22:16.965Z,24.32
2016-08-25T05:23:16.970Z,24.37
2016-08-25T05:24:16.979Z,24.3
2016-08-25T05:25:16.992Z,24.3
2016-08-25T05:26:17.006Z,24.34
2016-08-25T05:27:17.009Z,24.3
2016-08-25T05:28:17.007Z,24.33
2016-08-25T05:29:17.035Z,24.37
2016-08-25T05:30:17.045Z,24.3
2016-08-25T05:31:17.035Z,24.29
2016-08-25T05:32:17.057Z,24.29
2016-08-25T05:33:17.056Z,24.37
2016-08-25T05:34:17.087Z,24.32
2016-08-25T05:35:17.075Z,24.34
2016-08-25T05:36:17.106Z,24.33
2016-08-25T05:37:17.105Z,24.33
2016-08-25T05:38:17.107Z,24.36
2016-08-25T05:39:17.117Z,24.33
2016-08-25T05:40:17.125Z,24.3
2016-08-25T05:41:17.136Z,24.3
2016-08-25T05:42:17.154Z,24.36
2016-08-25T05:43:17.157Z,24.32
2016-08-25T05:44:17.154Z,24.32
2016-08-25T05:45:17.238Z,24.3
2016-08-25T05:46:17.193Z,24.34
2016-08-25T05:47:17.189Z,24.32
2016-08-25T05:48:17.193Z,24.27
2016-08-25T05:49:17.211Z,24.34
2016-08-25T05:50:17.241Z,24.33
2016-08-25T05:51:17.234Z,24.36
2016-08-25T05:52:17.256Z,24.36
2016-08-25T05:53:17.260Z,24.37
2016-08-25T05:54:17.264Z,24.36
2016-08-25T05:55:17.269Z,24.39
2016-08-25T05:56:17.290Z,24.32
2016-08-25T05:57:17.295Z,24.32
2016-08-25T05:58:17.317Z,24.39
2016-08-25T05:59:17.300Z,24.37
2016-08-25T06:00:17.337Z,24.37
2016-08-25T06:01:17.338Z,24.39
2016-08-25T06:02:17.345Z,24.37
2016-08-25T06:03:17.358Z,24.36
2016-08-25T06:04:17.355Z,24.39
2016-08-25T06:05:17.382Z,24.44
2016-08-25T06:06:17.370Z,24.36
2016-08-25T06:07:17.398Z,24.4
2016-08-25T06:08:17.396Z,24.42
2016-08-25T06:09:17.415Z,24.39
2016-08-25T06:10:17.414Z,24.36
2016-08-25T06:11:17.418Z,24.34
2016-08-25T06:12:17.442Z,24.36
2016-08-25T06:13:17.447Z,24.32
2016-08-25T06:14:17.474Z,24.4
2016-08-25T06:15:17.465Z,24.37
2016-08-25T06:16:17.488Z,24.36
2016-08-25T06:17:17.477Z,24.34
2016-08-25T06:18:17.501Z,24.36
2016-08-25T06:19:17.510Z,24.34
2016-08-25T06:20:17.505Z,24.36
2016-08-25T06:21:17.528Z,24.37
2016-08-25T06:22:17.532Z,24.36
2016-08-25T06:23:17.544Z,24.4
2016-08-25T06:24:17.564Z,24.42
2016-08-25T06:25:17.574Z,24.37
2016-08-25T06:26:17.574Z,24.42
2016-08-25T06:27:17.596Z,24.44
2016-08-25T06:28:17.596Z,24.36
2016-08-25T06:29:17.598Z,24.4
2016-08-25T06:30:17.622Z,24.44
2016-08-25T06:31:17.623Z,24.4
2016-08-25T06:32:17.640Z,24.4
2016-08-25T06:33:17.651Z,24.4
2016-08-25T06:34:17.673Z,24.44
2016-08-25T06:35:17.664Z,24.4
2016-08-25T06:36:17.666Z,24.51
2016-08-25T06:37:17.669Z,24.46
2016-08-25T06:38:17.700Z,24.45
2016-08-25T06:39:17.701Z,24.39
2016-08-25T06:40:17.717Z,24.42
2016-08-25T06:41:17.718Z,24.54
2016-08-25T06:42:17.714Z,24.52
2016-08-25T06:43:17.727Z,24.39
2016-08-25T06:44:17.756Z,24.44
2016-08-25T06:45:17.757Z,24.52
2016-08-25T06:46:17.769Z,24.54
2016-08-25T06:47:17.779Z,24.48
2016-08-25T06:48:17.803Z,24.44
2016-08-25T06:49:17.802Z,24.4
2016-08-25T06:50:17.817Z,24.51
2016-08-25T06:51:17.819Z,24.51
2016-08-25T06:52:17.812Z,24.46
2016-08-25T06:53:17.831Z,24.52
2016-08-25T06:54:17.837Z,24.48
2016-08-25T06:55:17.845Z,24.54
2016-08-25T06:56:17.868Z,24.54
2016-08-25T06:57:17.879Z,24.39
2016-08-25T06:58:17.889Z,24.39
2016-08-25T06:59:17.881Z,24.39
2016-08-25T07:00:17.903Z,24.4
2016-08-25T07:01:17.924Z,24.37
2016-08-25T07:02:17.913Z,24.42
2016-08-25T07:03:17.931Z,24.46
2016-08-25T07:04:17.931Z,24.45
2016-08-25T07:05:17.939Z,24.56
2016-08-25T07:06:17.957Z,24.56
2016-08-25T07:07:17.958Z,24.63
2016-08-25T07:08:17.988Z,24.56
2016-08-25T07:09:17.991Z,24.58
2016-08-25T07:10:17.994Z,24.55
2016-08-25T07:11:17.998Z,24.55
2016-08-25T07:12:18.002Z,24.59
2016-08-25T07:13:18.022Z,24.59
2016-08-25T07:14:18.026Z,24.59
2016-08-25T07:15:18.032Z,24.59
2016-08-25T07:16:18.043Z,24.61
2016-08-25T07:17:18.062Z,24.56
2016-08-25T07:18:18.070Z,24.59
2016-08-25T07:19:18.079Z,24.55
2016-08-25T07:20:18.107Z,24.56
2016-08-25T07:21:18.094Z,24.55
2016-08-25T07:22:18.120Z,24.58
2016-08-25T07:23:18.113Z,24.58
2016-08-25T07:24:18.135Z,24.56
2016-08-25T07:25:18.129Z,24.64
2016-08-25T07:26:18.162Z,24.58
2016-08-25T07:27:18.174Z,24.56
2016-08-25T07:28:18.167Z,24.59
2016-08-25T07:29:18.172Z,24.56
2016-08-25T07:30:18.196Z,24.58
2016-08-25T07:31:18.205Z,24.59
2016-08-25T07:32:18.205Z,24.69
2016-08-25T07:33:18.216Z,24.71
2016-08-25T07:34:18.219Z,24.74
2016-08-25T07:35:18.235Z,24.49
2016-08-25T07:36:18.250Z,24.54
2016-08-25T07:37:18.258Z,24.49
2016-08-25T07:38:18.257Z,24.45
2016-08-25T07:39:18.265Z,24.4
2016-08-25T07:40:18.275Z,24.32
2016-08-25T07:41:18.286Z,24.3
2016-08-25T07:42:18.296Z,24.32
2016-08-25T07:43:18.311Z,24.33
2016-08-25T07:44:18.342Z,24.3
2016-08-25T07:45:18.343Z,24.33
2016-08-25T07:46:18.346Z,24.32
2016-08-25T07:47:18.351Z,24.21
2016-08-25T07:48:18.350Z,24.3
2016-08-25T07:49:18.380Z,24.17
2016-08-25T07:50:18.399Z,24.17
2016-08-25T07:51:18.406Z,24.17
2016-08-25T07:52:18.393Z,24.17
2016-08-25T07:53:18.423Z,24.15
2016-08-25T07:54:18.414Z,24.26
2016-08-25T07:55:18.426Z,24.26
2016-08-25T07:56:18.433Z,24.24
2016-08-25T07:57:18.450Z,24.17
2016-08-25T07:58:18.454Z,24.21
2016-08-25T07:59:18.456Z,24.12
2016-08-25T08:00:18.467Z,24.26
2016-08-25T08:01:18.487Z,24.19
2016-08-25T08:02:18.503Z,24.15
2016-08-25T08:03:18.516Z,24.17
2016-08-25T08:04:18.526Z,24.26
2016-08-25T08:05:18.520Z,24.18
2016-08-25T08:06:18.535Z,24.27
2016-08-25T08:07:18.548Z,24.22
2016-08-25T08:08:18.555Z,24.34
2016-08-25T08:09:18.571Z,24.18
2016-08-25T08:10:18.563Z,24.18
2016-08-25T08:11:18.594Z,24.27
2016-08-25T08:12:18.587Z,24.21
2016-08-25T08:13:18.598Z,24.21
2016-08-25T08:14:18.603Z,24.22
2016-08-25T08:15:18.628Z,24.12
2016-08-25T08:16:18.634Z,24.15
2016-08-25T08:17:18.650Z,24.21
2016-08-25T08:18:18.658Z,24.26
2016-08-25T08:19:18.670Z,24.17
2016-08-25T08:20:18.668Z,24.27
2016-08-25T08:21:18.670Z,24.24
2016-08-25T08:22:18.694Z,24.3
2016-08-25T08:23:18.697Z,24.27
2016-08-25T08:24:18.730Z,24.26
2016-08-25T08:25:18.716Z,24.26
2016-08-25T08:26:18.714Z,24.24
2016-08-25T08:27:18.718Z,24.27
2016-08-25T08:28:19.445Z,24.22
2016-08-25T08:29:18.755Z,24.27
2016-08-25T08:30:18.754Z,24.29
2016-08-25T08:31:18.761Z,24.27
2016-08-25T08:32:18.790Z,24.3
2016-08-25T08:33:18.785Z,24.29
2016-08-25T08:34:18.798Z,24.3
2016-08-25T08:35:18.814Z,24.33
2016-08-25T08:36:18.821Z,24.37
2016-08-25T08:37:18.817Z,24.3
2016-08-25T08:38:18.834Z,24.44
2016-08-25T08:39:18.842Z,24.37
2016-08-25T08:40:18.874Z,24.45
2016-08-25T08:41:18.855Z,24.45
2016-08-25T08:42:18.870Z,24.45
2016-08-25T08:43:18.895Z,24.36
2016-08-25T08:44:18.907Z,24.44
2016-08-25T08:45:18.893Z,24.46
2016-08-25T08:46:18.908Z,24.4
2016-08-25T08:47:18.922Z,24.48
2016-08-25T08:48:18.940Z,24.45
2016-08-25T08:49:18.958Z,24.39
2016-08-25T08:50:18.947Z,24.52
2016-08-25T08:51:18.977Z,24.46
2016-08-25T08:52:18.979Z,24.52
2016-08-25T08:53:18.990Z,24.48
2016-08-25T08:54:19.001Z,24.55
2016-08-25T08:55:18.990Z,24.58
2016-08-25T08:56:19.010Z,24.54
2016-08-25T08:57:19.026Z,24.56
2016-08-25T08:58:19.039Z,24.59
2016-08-25T08:59:19.054Z,24.52
2016-08-25T09:00:19.062Z,24.59
2016-08-25T09:01:19.060Z,24.54
2016-08-25T09:02:19.064Z,24.55
2016-08-25T09:03:19.067Z,24.58
2016-08-25T09:04:19.090Z,24.71
2016-08-25T09:05:19.105Z,24.67
2016-08-25T09:06:19.103Z,24.71
2016-08-25T09:07:19.110Z,24.63
2016-08-25T09:08:19.122Z,24.7
2016-08-25T09:09:19.142Z,24.67
2016-08-25T09:10:19.141Z,24.71
2016-08-25T09:11:19.165Z,24.66
2016-08-25T09:12:19.171Z,24.7
2016-08-25T09:13:19.175Z,24.67
2016-08-25T09:14:19.184Z,24.74
2016-08-25T09:15:19.187Z,24.74
2016-08-25T09:16:19.203Z,24.67
2016-08-25T09:17:19.203Z,24.75
2016-08-25T09:18:19.218Z,24.75
2016-08-25T09:19:19.240Z,24.77
2016-08-25T09:20:19.238Z,24.71
2016-08-25T09:21:19.244Z,24.75
2016-08-25T09:22:19.269Z,24.83
2016-08-25T09:23:19.261Z,24.9
2016-08-25T09:24:19.267Z,24.83
2016-08-25T09:25:19.301Z,24.77
2016-08-25T09:26:19.301Z,24.8
2016-08-25T09:27:19.310Z,24.93
2016-08-25T09:28:19.326Z,24.86
2016-08-25T09:29:19.319Z,24.93
2016-08-25T09:30:19.346Z,24.9
2016-08-25T09:31:19.333Z,24.9
2016-08-25T09:32:19.356Z,25.05
2016-08-25T09:33:19.362Z,25.05
2016-08-25T09:34:19.371Z,25.05
2016-08-25T09:35:19.398Z,25.05
2016-08-25T09:36:19.410Z,25.11
2016-08-25T09:37:19.395Z,25.23
2016-08-25T09:38:19.409Z,25.23
2016-08-25T09:39:19.415Z,25.26
2016-08-25T09:40:19.459Z,25.23
2016-08-25T09:41:20.134Z,25.3
2016-08-25T09:42:19.459Z,25.3
2016-08-25T09:43:19.459Z,25.33
2016-08-25T09:44:19.505Z,25.39
2016-08-25T09:45:19.492Z,25.44
2016-08-25T09:46:19.581Z,25.42
2016-08-25T09:47:19.497Z,25.49
2016-08-25T09:48:19.504Z,25.52
2016-08-25T09:49:19.530Z,25.44
2016-08-25T09:50:19.527Z,25.45
2016-08-25T09:51:19.555Z,25.59
2016-08-25T09:52:19.554Z,25.52
2016-08-25T09:53:19.562Z,25.49
2016-08-25T09:54:19.590Z,25.64
2016-08-25T09:55:19.591Z,25.74
2016-08-25T09:56:19.597Z,25.63
2016-08-25T09:57:19.594Z,25.74
2016-08-25T09:58:19.625Z,25.67
2016-08-25T09:59:19.640Z,25.78
2016-08-25T10:00:19.623Z,25.71
2016-08-25T10:01:19.640Z,25.82
2016-08-25T10:02:19.650Z,25.84
2016-08-25T10:03:19.683Z,25.81
2016-08-25T10:04:19.681Z,25.88
2016-08-25T10:05:19.689Z,25.91
2016-08-25T10:06:19.689Z,25.93
2016-08-25T10:07:19.689Z,25.93
2016-08-25T10:08:19.721Z,25.91
2016-08-25T10:09:19.719Z,25.96
2016-08-25T10:10:19.731Z,25.97
2016-08-25T10:11:19.757Z,26.04
2016-08-25T10:12:19.770Z,26.03
2016-08-25T10:13:19.759Z,26.09
2016-08-25T10:14:19.774Z,26.09
2016-08-25T10:15:19.774Z,26.07
2016-08-25T10:16:19.783Z,26.17
2016-08-25T10:17:19.797Z,26.2
2016-08-25T10:18:19.813Z,26.2
2016-08-25T10:19:19.831Z,26.2
2016-08-25T10:20:19.836Z,26.26
2016-08-25T10:21:19.843Z,26.31
2016-08-25T10:22:19.864Z,26.24
2016-08-25T10:23:19.882Z,26.32
2016-08-25T10:24:19.886Z,26.24
2016-08-25T10:25:19.900Z,26.34
2016-08-25T10:26:19.913Z,26.37
2016-08-25T10:27:19.925Z,26.38
2016-08-25T10:28:19.914Z,26.32
2016-08-25T10:29:19.922Z,26.38
2016-08-25T10:30:19.952Z,26.39
2016-08-25T10:31:19.959Z,26.38
2016-08-25T10:32:19.954Z,26.34
2016-08-25T10:33:19.962Z,26.42
2016-08-25T10:34:19.999Z,26.42
2016-08-25T10:35:20.000Z,26.47
2016-08-25T10:36:19.993Z,26.44
2016-08-25T10:37:20.023Z,26.38
2016-08-25T10:38:20.018Z,26.45
2016-08-25T10:39:20.053Z,26.45
2016-08-25T10:40:20.052Z,26.52
2016-08-25T10:41:20.052Z,26.53
2016-08-25T10:42:20.071Z,26.59
2016-08-25T10:43:20.073Z,26.67
2016-08-25T10:44:20.099Z,26.54
2016-08-25T10:45:20.088Z,26.64
2016-08-25T10:46:20.157Z,26.74
2016-08-25T10:47:20.114Z,26.71
2016-08-25T10:48:20.115Z,26.64
2016-08-25T10:49:20.134Z,26.69
2016-08-25T10:50:20.177Z,26.76
2016-08-25T10:51:20.172Z,26.82
2016-08-25T10:52:20.180Z,26.75
2016-08-25T10:53:20.179Z,26.89
2016-08-25T10:54:20.220Z,26.9
2016-08-25T10:55:20.216Z,26.89
2016-08-25T10:56:20.211Z,26.93
2016-08-25T10:57:20.221Z,26.93
2016-08-25T10:58:20.236Z,26.96
2016-08-25T10:59:20.231Z,27.01
2016-08-25T11:00:20.252Z,27
2016-08-25T11:01:20.259Z,26.99
2016-08-25T11:02:20.273Z,27.09
2016-08-25T11:03:20.303Z,27.08
2016-08-25T11:04:20.293Z,26.99
2016-08-25T11:05:20.317Z,27.11
2016-08-25T11:06:20.327Z,27.13
2016-08-25T11:07:20.322Z,27.09
2016-08-25T11:08:20.349Z,27.24
2016-08-25T11:09:21.070Z,27.28
2016-08-25T11:10:20.369Z,27.37
2016-08-25T11:11:20.382Z,27.42
2016-08-25T11:12:20.383Z,27.45
2016-08-25T11:13:20.398Z,27.38
2016-08-25T11:14:20.407Z,27.52
2016-08-25T11:15:20.410Z,27.55
2016-08-25T11:16:20.429Z,27.46
2016-08-25T11:17:20.439Z,27.59
2016-08-25T11:18:20.446Z,27.52
2016-08-25T11:19:20.482Z,27.55
2016-08-25T11:20:20.459Z,27.64
2016-08-25T11:21:20.492Z,27.66
2016-08-25T11:22:20.492Z,27.69
2016-08-25T11:23:20.508Z,27.75
2016-08-25T11:24:20.502Z,27.79
2016-08-25T11:25:20.525Z,27.79
2016-08-25T11:26:20.549Z,27.68
2016-08-25T11:27:20.558Z,27.79
2016-08-25T11:28:20.570Z,27.75
2016-08-25T11:29:20.569Z,27.76
2016-08-25T11:30:20.588Z,27.83
2016-08-25T11:31:20.609Z,27.79
2016-08-25T11:32:20.601Z,27.87
2016-08-25T11:33:20.602Z,27.89
2016-08-25T11:34:20.625Z,27.86
2016-08-25T11:35:20.635Z,27.89
2016-08-25T11:36:20.639Z,27.96
2016-08-25T11:37:20.671Z,27.96
2016-08-25T11:38:20.678Z,28.03
2016-08-25T11:39:20.690Z,28.01
2016-08-25T11:40:20.701Z,28.01
2016-08-25T11:41:20.717Z,28.03
2016-08-25T11:42:20.716Z,28.09
2016-08-25T11:43:20.742Z,28.11
2016-08-25T11:44:20.742Z,28.05
2016-08-25T11:45:20.736Z,28.17
2016-08-25T11:46:20.774Z,28.14
2016-08-25T11:47:20.778Z,28.17
2016-08-25T11:48:20.785Z,28.14
2016-08-25T11:49:20.780Z,28.16
2016-08-25T11:50:20.791Z,28.23
2016-08-25T11:51:20.802Z,28.11
2016-08-25T11:52:20.823Z,28.2
2016-08-25T11:53:20.842Z,28.17
2016-08-25T11:54:20.857Z,28.16
2016-08-25T11:55:21.551Z,28.2
2016-08-25T11:56:20.872Z,28.23
2016-08-25T11:57:20.882Z,28.2
2016-08-25T11:58:20.905Z,28.14
2016-08-25T11:59:20.925Z,28.14
2016-08-25T12:00:21.609Z,28.2
2016-08-25T12:01:20.926Z,28.14
2016-08-25T12:02:20.929Z,28.09
2016-08-25T12:03:20.945Z,28.09
2016-08-25T12:04:20.966Z,28.11
2016-08-25T12:05:20.957Z,28.17
2016-08-25T12:06:20.980Z,28.12
2016-08-25T12:07:20.998Z,28.2
2016-08-25T12:08:21.004Z,28.23
2016-08-25T12:09:21.027Z,28.28
2016-08-25T12:10:21.037Z,28.28
2016-08-25T12:11:21.053Z,28.3
2016-08-25T12:12:21.035Z,28.28
2016-08-25T12:13:21.069Z,28.35
2016-08-25T12:14:21.081Z,28.39
2016-08-25T12:15:21.078Z,28.35
2016-08-25T12:16:21.089Z,28.42
2016-08-25T12:17:21.122Z,28.43
2016-08-25T12:18:21.120Z,28.45
2016-08-25T12:19:21.140Z,28.42
2016-08-25T12:20:21.137Z,28.42
2016-08-25T12:21:21.140Z,28.48
2016-08-25T12:22:21.151Z,28.49
2016-08-25T12:23:21.173Z,28.45
2016-08-25T12:24:21.183Z,28.48
2016-08-25T12:25:21.190Z,28.54
2016-08-25T12:26:21.209Z,28.54
2016-08-25T12:27:21.228Z,28.54
2016-08-25T12:28:21.224Z,28.54
2016-08-25T12:29:21.248Z,28.54
2016-08-25T12:30:21.250Z,28.54
2016-08-25T12:31:21.262Z,28.54
2016-08-25T12:32:21.268Z,28.54
2016-08-25T12:33:21.298Z,28.64
2016-08-25T12:34:21.291Z,28.55
2016-08-25T12:35:21.305Z,28.63
2016-08-25T12:36:21.324Z,28.63
2016-08-25T12:37:21.334Z,28.63
2016-08-25T12:38:21.344Z,28.68
2016-08-25T12:39:21.364Z,28.64
2016-08-25T12:40:21.370Z,28.7
2016-08-25T12:41:21.366Z,28.75
2016-08-25T12:42:21.378Z,28.64
2016-08-25T12:43:21.408Z,28.6
2016-08-25T12:44:21.414Z,28.61
2016-08-25T12:45:21.409Z,28.7
2016-08-25T12:46:21.446Z,28.7
2016-08-25T12:47:21.441Z,28.53
2016-08-25T12:48:21.455Z,28.75
2016-08-25T12:49:21.460Z,28.63
2016-08-25T12:50:21.487Z,28.75
2016-08-25T12:51:21.478Z,28.75
2016-08-25T12:52:21.498Z,28.7
2016-08-25T12:53:21.519Z,28.86
2016-08-25T12:54:21.533Z,28.78
2016-08-25T12:55:21.522Z,28.75